Time;durP1;ratioP1;P1;durP2;ratioP2;P2;SDS_P1;SDS_P2;PMS_P1;PMS_P2;Temp;Humidity;BMP_temperature;BMP_pressure;BME280_temperature;BME280_humidity;BME280_pressure;Samples;Min_cycle;Max_cycle;Signal;HPM_P1;HPM_P2
2021/10/10 00:00:32;;;;;;;7.37;6.20;;;6.70;99.90;;;;;;6237484;22;20768;-83
2021/10/10 00:02:58;;;;;;;79.13;10.23;;;6.70;99.90;;;;;;6237702;22;20200;-83
2021/10/10 00:05:24;;;;;;;99.47;12.47;;;6.60;99.90;;;;;;6186913;22;20530;-83
2021/10/10 00:07:50;;;;;;;104.93;8.83;;;6.50;99.90;;;;;;6213302;23;20166;-83
2021/10/10 00:10:16;;;;;;;142.87;9.07;;;6.40;99.90;;;;;;6186717;23;20223;-83
2021/10/10 00:12:42;;;;;;;66.53;6.23;;;6.30;99.90;;;;;;6237096;22;20288;-83
2021/10/10 00:15:11;;;;;;;45.80;4.20;;;6.10;99.90;;;;;;6212148;23;20208;-83
2021/10/10 00:17:37;;;;;;;6.83;4.53;;;6.00;99.90;;;;;;6237095;22;20157;-83
2021/10/10 00:20:05;;;;;;;12.80;7.57;;;5.80;99.90;;;;;;6237493;23;20173;-83
2021/10/10 00:22:31;;;;;;;10.50;7.33;;;6.00;99.90;;;;;;6238353;22;20239;-83
2021/10/10 00:24:57;;;;;;;35.90;11.73;;;6.40;99.90;;;;;;6211844;23;20201;-83
2021/10/10 00:27:23;;;;;;;20.57;7.90;;;6.50;99.90;;;;;;6236900;22;20204;-83
2021/10/10 00:29:50;;;;;;;30.67;9.87;;;6.50;99.90;;;;;;6237516;22;20189;-83
2021/10/10 00:32:16;;;;;;;9.50;6.90;;;6.60;99.90;;;;;;6238995;22;20227;-83
2021/10/10 00:34:42;;;;;;;31.37;9.23;;;6.60;99.90;;;;;;6238383;22;20216;-83
2021/10/10 00:37:08;;;;;;;23.93;6.23;;;6.60;99.90;;;;;;6211618;23;20200;-83
2021/10/10 00:39:34;;;;;;;32.73;7.97;;;6.50;99.90;;;;;;6237153;22;20197;-83
2021/10/10 00:42:00;;;;;;;42.60;8.00;;;6.50;99.90;;;;;;6186316;23;20197;-84
2021/10/10 00:44:27;;;;;;;42.00;6.97;;;6.40;99.90;;;;;;6187133;22;20619;-83
2021/10/10 00:46:53;;;;;;;21.30;6.37;;;6.30;99.90;;;;;;6187217;23;20212;-83
2021/10/10 00:49:19;;;;;;;79.83;6.73;;;6.20;99.90;;;;;;6186811;23;20197;-83
2021/10/10 00:51:46;;;;;;;119.47;11.57;;;6.20;99.90;;;;;;6211761;23;20201;-83
2021/10/10 00:54:14;;;;;;;52.27;6.53;;;6.10;99.90;;;;;;6211517;23;20727;-84
2021/10/10 00:56:43;;;;;;;57.70;5.67;;;6.10;99.90;;;;;;6236430;22;20193;-83
2021/10/10 00:59:12;;;;;;;31.70;4.77;;;6.10;99.90;;;;;;6237690;23;20522;-83
2021/10/10 01:01:38;;;;;;;38.30;7.77;;;6.00;99.90;;;;;;6236478;22;20221;-83
2021/10/10 01:04:04;;;;;;;42.93;6.00;;;5.90;99.90;;;;;;6236811;22;20255;-83
2021/10/10 01:06:30;;;;;;;23.23;4.70;;;5.80;99.90;;;;;;6186724;23;20201;-83
2021/10/10 01:08:55;;;;;;;7.23;5.47;;;5.80;99.90;;;;;;6211942;23;20193;-83
2021/10/10 01:11:25;;;;;;;10.47;6.17;;;5.90;99.90;;;;;;6236735;22;20280;-83
2021/10/10 01:13:51;;;;;;;9.97;6.83;;;5.90;99.90;;;;;;6237554;23;20625;-84
2021/10/10 01:16:17;;;;;;;10.63;7.23;;;6.00;99.90;;;;;;6186330;23;20633;-83
2021/10/10 01:18:43;;;;;;;7.07;5.73;;;6.10;99.90;;;;;;6186587;23;20193;-83
2021/10/10 01:21:09;;;;;;;10.30;8.63;;;6.20;99.90;;;;;;6211491;23;20634;-83
2021/10/10 01:23:35;;;;;;;10.87;6.57;;;6.20;99.90;;;;;;6187110;22;20248;-83
2021/10/10 01:26:00;;;;;;;13.60;8.90;;;6.30;99.90;;;;;;6187498;23;20609;-83
2021/10/10 01:28:26;;;;;;;9.70;7.43;;;6.30;99.90;;;;;;6236335;22;20661;-83
2021/10/10 01:30:52;;;;;;;10.53;9.43;;;6.40;99.90;;;;;;6186475;23;20212;-83
2021/10/10 01:33:18;;;;;;;10.80;7.23;;;6.50;99.90;;;;;;6186476;23;20192;-84
2021/10/10 01:35:43;;;;;;;11.03;8.83;;;6.50;99.90;;;;;;6236803;22;20219;-83
2021/10/10 01:38:13;;;;;;;9.77;8.87;;;6.60;99.90;;;;;;6186839;23;20177;-83
2021/10/10 01:40:43;;;;;;;8.50;7.67;;;6.60;99.90;;;;;;6211965;23;20204;-83
2021/10/10 01:43:09;;;;;;;15.47;7.93;;;6.60;99.90;;;;;;6187514;23;20650;-83
2021/10/10 01:45:34;;;;;;;29.93;7.43;;;6.50;99.90;;;;;;6211696;23;20201;-84
2021/10/10 01:48:00;;;;;;;49.80;6.03;;;6.30;99.90;;;;;;6238450;22;20536;-83
2021/10/10 01:50:26;;;;;;;36.43;6.03;;;6.00;99.90;;;;;;6185986;22;20164;-83
2021/10/10 01:52:52;;;;;;;10.57;3.57;;;5.70;99.90;;;;;;6211982;23;20202;-83
2021/10/10 01:55:19;;;;;;;79.43;7.63;;;5.50;99.90;;;;;;6211317;23;20228;-83
2021/10/10 01:57:45;;;;;;;16.37;3.57;;;5.40;99.90;;;;;;6236138;22;20665;-84
2021/10/10 02:00:12;;;;;;;6.23;3.77;;;5.40;99.90;;;;;;6211060;23;20197;-83
2021/10/10 02:02:38;;;;;;;60.67;6.17;;;5.40;99.90;;;;;;6211480;22;20240;-83
2021/10/10 02:05:04;;;;;;;28.47;6.07;;;5.30;99.90;;;;;;6211937;23;20169;-83
2021/10/10 02:07:30;;;;;;;29.80;6.13;;;5.10;99.90;;;;;;6211231;23;20200;-83
2021/10/10 02:09:56;;;;;;;20.80;5.63;;;5.00;99.90;;;;;;6237811;22;20272;-83
2021/10/10 02:12:22;;;;;;;30.90;6.27;;;5.00;99.90;;;;;;6237818;22;20211;-83
2021/10/10 02:14:47;;;;;;;148.30;9.60;;;5.00;99.90;;;;;;6213573;23;20268;-83
2021/10/10 02:17:13;;;;;;;5.97;4.00;;;4.90;99.90;;;;;;6188143;23;20992;-83
2021/10/10 02:19:39;;;;;;;3.37;2.33;;;4.80;99.90;;;;;;6188366;23;20208;-82
2021/10/10 02:22:05;;;;;;;9.60;3.37;;;4.70;99.90;;;;;;6187724;23;20193;-84
2021/10/10 02:24:30;;;;;;;6.63;4.67;;;4.60;99.90;;;;;;6213332;23;20648;-83
2021/10/10 02:26:56;;;;;;;3.87;3.57;;;4.50;99.90;;;;;;6212886;23;20185;-83
2021/10/10 02:29:22;;;;;;;4.20;3.80;;;4.60;99.90;;;;;;6213388;22;20176;-84
2021/10/10 02:31:47;;;;;;;4.10;3.70;;;4.60;99.90;;;;;;6188634;23;20193;-83
2021/10/10 02:34:15;;;;;;;6.40;5.80;;;4.80;99.90;;;;;;6212848;23;20235;-83
2021/10/10 02:36:41;;;;;;;4.87;3.63;;;5.00;99.90;;;;;;6212951;23;20277;-83
2021/10/10 02:39:08;;;;;;;4.30;3.73;;;4.90;99.90;;;;;;6239607;22;20192;-83
2021/10/10 02:41:34;;;;;;;4.27;3.87;;;4.90;99.90;;;;;;6237761;22;20197;-83
2021/10/10 02:44:00;;;;;;;7.40;3.17;;;4.80;99.90;;;;;;6213985;23;20158;-83
2021/10/10 02:46:26;;;;;;;4.77;4.13;;;4.80;99.90;;;;;;6212574;23;20541;-83
2021/10/10 02:48:52;;;;;;;3.83;3.43;;;4.60;99.90;;;;;;6212911;23;20213;-83
2021/10/10 02:51:17;;;;;;;17.50;4.27;;;4.50;99.90;;;;;;6237917;22;20197;-83
2021/10/10 02:53:43;;;;;;;12.97;3.63;;;4.40;99.90;;;;;;6237503;22;20196;-83
2021/10/10 02:56:09;;;;;;;19.47;4.50;;;4.40;99.90;;;;;;6188637;23;20207;-83
2021/10/10 02:58:35;;;;;;;14.93;5.30;;;4.40;99.90;;;;;;6237805;22;20197;-83
2021/10/10 03:01:01;;;;;;;20.97;4.40;;;4.40;99.90;;;;;;6212478;23;20577;-83
2021/10/10 03:03:26;;;;;;;3.97;3.67;;;4.40;99.90;;;;;;6237959;22;20564;-83
2021/10/10 03:05:52;;;;;;;4.53;3.77;;;4.40;99.90;;;;;;6238393;22;20651;-83
2021/10/10 03:08:18;;;;;;;5.63;5.03;;;4.30;99.90;;;;;;6213044;22;20248;-83
2021/10/10 03:10:44;;;;;;;4.97;3.70;;;4.30;99.90;;;;;;6213316;23;20157;-84
2021/10/10 03:13:10;;;;;;;12.13;3.97;;;4.30;99.90;;;;;;6187492;23;20197;-83
2021/10/10 03:15:39;;;;;;;16.43;3.93;;;4.40;99.90;;;;;;6187933;23;20194;-83
2021/10/10 03:18:06;;;;;;;9.83;3.97;;;4.40;99.90;;;;;;6213309;23;20229;-83
2021/10/10 03:20:32;;;;;;;15.40;3.80;;;4.40;99.90;;;;;;6236987;22;20158;-83
2021/10/10 03:22:57;;;;;;;87.90;8.13;;;4.50;99.90;;;;;;6238535;23;20268;-83
2021/10/10 03:25:23;;;;;;;19.63;4.50;;;4.50;99.90;;;;;;6212482;23;20232;-83
2021/10/10 03:27:49;;;;;;;40.37;6.03;;;4.60;99.90;;;;;;6238929;22;20201;-84
2021/10/10 03:30:15;;;;;;;38.63;5.60;;;4.50;99.90;;;;;;6212424;23;20200;-84
2021/10/10 03:32:40;;;;;;;48.70;5.17;;;4.40;99.90;;;;;;6187452;22;20225;-84
2021/10/10 03:35:07;;;;;;;29.30;3.43;;;4.40;99.90;;;;;;6213300;23;20161;-83
2021/10/10 03:37:35;;;;;;;40.77;5.60;;;4.40;99.90;;;;;;6212215;23;20884;-83
2021/10/10 03:40:04;;;;;;;5.13;4.27;;;4.50;99.90;;;;;;6212620;23;20266;-83
2021/10/10 03:42:30;;;;;;;6.17;4.33;;;4.50;99.90;;;;;;6237248;22;20271;-84
2021/10/10 03:44:56;;;;;;;12.43;5.03;;;4.40;99.90;;;;;;6213080;23;20652;-83
2021/10/10 03:47:22;;;;;;;5.60;4.30;;;4.40;99.90;;;;;;6211997;22;20260;-83
2021/10/10 03:49:47;;;;;;;8.17;5.57;;;4.30;99.90;;;;;;6188110;23;20245;-83
2021/10/10 03:52:13;;;;;;;11.20;4.60;;;4.30;99.90;;;;;;6212154;23;20205;-83
2021/10/10 03:57:05;;;;;;;4.90;4.03;;;4.20;99.90;;;;;;6237247;22;20235;-83
2021/10/10 03:59:31;;;;;;;5.97;4.70;;;4.20;99.90;;;;;;6187093;22;20647;-83
2021/10/10 04:02:04;;;;;;;5.23;4.63;;;4.30;99.90;;;;;;6213025;23;20161;-84
2021/10/10 04:04:33;;;;;;;33.70;5.47;;;4.30;99.90;;;;;;6213507;23;20254;-83
2021/10/10 04:06:58;;;;;;;5.13;4.13;;;4.30;99.90;;;;;;6212570;23;20208;-83
2021/10/10 04:09:24;;;;;;;4.83;4.37;;;4.40;99.90;;;;;;6212062;23;20196;-83
2021/10/10 04:11:50;;;;;;;10.00;7.03;;;4.30;99.90;;;;;;6187235;23;20661;-83
2021/10/10 04:14:15;;;;;;;6.10;5.47;;;4.50;99.90;;;;;;6212751;23;20196;-83
2021/10/10 04:16:41;;;;;;;7.93;6.87;;;4.70;99.90;;;;;;6186919;23;20201;-83
2021/10/10 04:19:07;;;;;;;5.93;5.33;;;4.70;99.90;;;;;;6211547;23;20204;-84
2021/10/10 04:21:32;;;;;;;6.13;5.60;;;4.80;99.90;;;;;;6186905;23;20665;-83
2021/10/10 04:23:58;;;;;;;10.03;7.70;;;4.90;99.90;;;;;;6186632;23;20204;-83
2021/10/10 04:26:24;;;;;;;6.67;5.57;;;5.00;99.90;;;;;;6211814;22;20166;-84
2021/10/10 04:28:49;;;;;;;5.67;4.63;;;5.10;99.90;;;;;;6212507;23;20591;-84
2021/10/10 04:31:17;;;;;;;6.47;4.13;;;5.00;99.90;;;;;;6211250;23;20205;-83
2021/10/10 04:33:43;;;;;;;15.00;5.90;;;4.80;99.90;;;;;;6212078;23;20272;-83
2021/10/10 04:36:09;;;;;;;7.20;5.83;;;4.70;99.90;;;;;;6211669;23;20233;-83
2021/10/10 04:38:35;;;;;;;66.17;7.17;;;4.70;99.90;;;;;;6186605;22;20165;-83
2021/10/10 04:41:01;;;;;;;8.27;6.50;;;4.70;99.90;;;;;;6212353;22;20164;-83
2021/10/10 04:43:26;;;;;;;10.23;8.60;;;4.80;99.90;;;;;;6211649;23;20224;-83
2021/10/10 04:45:52;;;;;;;9.77;6.70;;;5.00;99.90;;;;;;6186729;23;20220;-83
2021/10/10 04:48:18;;;;;;;9.23;6.87;;;5.30;99.90;;;;;;6236584;22;20520;-83
2021/10/10 04:50:44;;;;;;;10.50;7.10;;;5.30;99.90;;;;;;6211556;23;20229;-83
2021/10/10 04:53:09;;;;;;;14.67;7.27;;;5.40;99.90;;;;;;6187422;23;20189;-83
2021/10/10 04:55:35;;;;;;;11.00;5.57;;;5.60;99.90;;;;;;6211760;23;20197;-84
2021/10/10 04:58:01;;;;;;;10.73;8.03;;;5.60;99.90;;;;;;6237318;22;20197;-83
2021/10/10 05:00:27;;;;;;;11.70;8.40;;;5.70;99.90;;;;;;6236534;22;20204;-83
2021/10/10 05:02:53;;;;;;;10.10;8.77;;;5.80;99.90;;;;;;6237013;22;20223;-84
2021/10/10 05:05:19;;;;;;;12.20;8.87;;;5.90;99.90;;;;;;6211870;22;20196;-82
2021/10/10 05:07:45;;;;;;;13.93;10.23;;;6.00;99.90;;;;;;6238277;22;20192;-83
2021/10/10 05:10:11;;;;;;;18.97;11.37;;;6.10;99.90;;;;;;6236385;22;20189;-83
2021/10/10 05:12:37;;;;;;;15.63;10.60;;;6.20;99.90;;;;;;6186151;23;20945;-83
2021/10/10 05:15:07;;;;;;;13.50;10.17;;;6.30;99.90;;;;;;6211110;23;20200;-84
2021/10/10 05:17:33;;;;;;;15.27;9.93;;;6.30;99.90;;;;;;6211428;22;20166;-84
2021/10/10 05:19:59;;;;;;;13.33;9.53;;;6.40;99.90;;;;;;6212473;23;20169;-84
2021/10/10 05:22:24;;;;;;;18.33;12.30;;;6.40;99.90;;;;;;6211190;23;20276;-84
2021/10/10 05:24:51;;;;;;;25.27;13.00;;;6.50;99.90;;;;;;6211513;23;20258;-84
2021/10/10 05:27:17;;;;;;;18.57;10.67;;;6.60;99.90;;;;;;6186547;23;20264;-84
2021/10/10 05:29:43;;;;;;;15.00;9.37;;;6.60;99.90;;;;;;6186482;23;20212;-84
2021/10/10 05:32:08;;;;;;;22.20;11.07;;;6.60;99.90;;;;;;6237412;23;20235;-84
2021/10/10 05:34:34;;;;;;;18.47;11.43;;;6.60;99.90;;;;;;6210957;23;20220;-84
2021/10/10 05:37:00;;;;;;;17.67;9.57;;;6.60;99.90;;;;;;6211290;23;20201;-85
2021/10/10 05:39:26;;;;;;;22.53;9.37;;;6.70;99.90;;;;;;6236651;22;20197;-84
2021/10/10 05:41:51;;;;;;;15.53;11.57;;;6.70;99.90;;;;;;6187262;23;20204;-85
2021/10/10 05:44:17;;;;;;;16.93;10.40;;;6.70;99.90;;;;;;6238432;23;20165;-84
2021/10/10 05:46:43;;;;;;;12.70;9.23;;;6.70;99.90;;;;;;6241356;22;20566;-85
2021/10/10 05:49:09;;;;;;;16.87;11.00;;;6.70;99.90;;;;;;6213606;23;20708;-86
2021/10/10 05:51:35;;;;;;;10.37;8.93;;;6.80;99.90;;;;;;6188449;23;20225;-85
2021/10/10 05:54:02;;;;;;;14.80;9.73;;;6.80;99.90;;;;;;6212878;23;20193;-85
2021/10/10 05:56:28;;;;;;;17.27;10.30;;;6.80;99.90;;;;;;6235868;22;20176;-85
2021/10/10 05:59:02;;;;;;;16.27;9.23;;;6.70;99.90;;;;;;6189270;23;20154;-84
2021/10/10 06:01:28;;;;;;;12.87;9.00;;;6.80;99.90;;;;;;6238613;22;20283;-85
2021/10/10 06:03:54;;;;;;;10.17;8.00;;;6.80;99.90;;;;;;6188873;23;20231;-85
2021/10/10 06:06:19;;;;;;;12.27;9.43;;;6.60;99.90;;;;;;6238010;22;20196;-85
2021/10/10 06:08:45;;;;;;;12.07;7.80;;;6.60;99.90;;;;;;6238679;22;20203;-85
2021/10/10 06:11:11;;;;;;;14.17;8.73;;;6.60;99.90;;;;;;6213587;23;20225;-85
2021/10/10 06:13:40;;;;;;;12.63;8.27;;;6.60;99.90;;;;;;6188237;23;20661;-84
2021/10/10 06:16:06;;;;;;;9.63;6.83;;;6.70;99.90;;;;;;6238460;22;20197;-85
2021/10/10 06:18:33;;;;;;;7.97;6.60;;;6.60;99.90;;;;;;6237821;22;20530;-84
2021/10/10 06:20:59;;;;;;;11.87;9.10;;;6.70;99.90;;;;;;6237186;22;20272;-85
2021/10/10 06:23:24;;;;;;;11.90;8.23;;;6.60;99.90;;;;;;6212147;22;20206;-85
2021/10/10 06:25:50;;;;;;;10.57;9.40;;;6.70;99.90;;;;;;6213593;23;20161;-83
2021/10/10 06:28:16;;;;;;;12.30;7.93;;;6.80;99.90;;;;;;6187896;23;20200;-84
2021/10/10 06:30:42;;;;;;;13.07;9.27;;;6.90;99.90;;;;;;6187959;23;20201;-85
2021/10/10 06:33:07;;;;;;;18.47;9.40;;;7.00;99.90;;;;;;6187953;23;20201;-84
2021/10/10 06:35:33;;;;;;;17.13;10.53;;;7.00;99.90;;;;;;6187655;22;20157;-86
2021/10/10 06:37:59;;;;;;;21.30;15.63;;;7.20;99.90;;;;;;6189148;23;20543;-90
2021/10/10 06:40:25;;;;;;;20.77;14.87;;;7.40;99.90;;;;;;6187760;23;20205;-86
2021/10/10 06:42:50;;;;;;;15.17;10.27;;;7.40;99.90;;;;;;6212762;23;20224;-86
2021/10/10 06:45:16;;;;;;;26.00;15.63;;;7.50;99.90;;;;;;6187479;23;20192;-85
2021/10/10 06:47:42;;;;;;;34.73;15.07;;;7.50;99.90;;;;;;6187858;23;20201;-85
2021/10/10 06:50:08;;;;;;;12.70;11.13;;;7.60;99.90;;;;;;6213344;23;20537;-87
2021/10/10 06:52:34;;;;;;;19.23;10.93;;;7.50;99.90;;;;;;6212278;23;20205;-86
2021/10/10 06:54:59;;;;;;;19.80;11.97;;;7.60;99.90;;;;;;6187982;23;20216;-87
2021/10/10 06:57:29;;;;;;;17.33;13.90;;;7.80;99.90;;;;;;6213545;23;20650;-93
2021/10/10 06:59:58;;;;;;;83.70;40.80;;;7.90;99.90;;;;;;6189426;23;20698;-86
2021/10/10 07:02:25;;;;;;;76.73;38.93;;;8.20;99.90;;;;;;6238359;22;20877;-86
2021/10/10 07:04:51;;;;;;;66.27;36.67;;;8.50;99.90;;;;;;6213994;23;20563;-86
2021/10/10 07:07:17;;;;;;;41.87;28.10;;;8.80;99.90;;;;;;6212633;23;20315;-86
2021/10/10 07:09:42;;;;;;;59.27;36.53;;;8.90;99.90;;;;;;6187444;23;20623;-86
2021/10/10 07:12:08;;;;;;;30.27;20.20;;;9.00;99.90;;;;;;6187720;23;20197;-86
2021/10/10 07:14:34;;;;;;;72.10;30.20;;;9.10;99.90;;;;;;6212653;22;20185;-86
2021/10/10 07:17:00;;;;;;;49.27;28.60;;;9.30;99.90;;;;;;6188676;23;20176;-86
2021/10/10 07:19:33;;;;;;;30.33;17.73;;;9.60;99.90;;;;;;6212454;23;20287;-85
2021/10/10 07:22:14;;;;;;;36.97;17.17;;;9.90;99.90;;;;;;6214613;23;20197;-84
2021/10/10 07:25:00;;;;;;;33.23;19.33;;;10.20;99.90;;;;;;6193667;23;20711;-86
2021/10/10 07:27:26;;;;;;;26.90;16.53;;;10.30;99.90;;;;;;6197299;23;20228;-86
2021/10/10 07:29:52;;;;;;;26.17;15.50;;;10.20;99.90;;;;;;6213130;23;20197;-86
2021/10/10 07:32:18;;;;;;;25.57;15.30;;;10.00;99.90;;;;;;6189135;23;20280;-87
2021/10/10 07:34:43;;;;;;;19.40;13.70;;;10.00;99.90;;;;;;6213233;23;20181;-86
2021/10/10 07:37:09;;;;;;;27.63;14.30;;;10.10;99.90;;;;;;6187575;23;20254;-86
2021/10/10 07:39:35;;;;;;;24.23;12.73;;;10.30;99.90;;;;;;6187982;23;20504;-86
2021/10/10 07:42:00;;;;;;;24.33;17.97;;;10.70;99.90;;;;;;6212132;23;20205;-86
2021/10/10 07:44:30;;;;;;;21.33;13.80;;;11.30;99.90;;;;;;6212792;22;20165;-87
2021/10/10 07:47:15;;;;;;;19.63;13.63;;;11.80;99.90;;;;;;6190393;23;20160;-87
2021/10/10 07:49:43;;;;;;;19.73;11.47;;;11.80;99.90;;;;;;6195469;23;20197;-87
2021/10/10 07:52:09;;;;;;;16.93;11.00;;;11.70;99.90;;;;;;6212917;23;20512;-86
2021/10/10 07:54:34;;;;;;;16.63;10.97;;;11.50;99.90;;;;;;6237396;22;20288;-86
2021/10/10 07:57:00;;;;;;;14.83;11.00;;;11.50;99.90;;;;;;6187797;23;20642;-86
2021/10/10 07:59:26;;;;;;;13.90;10.27;;;11.50;99.90;;;;;;6211969;22;20181;-86
2021/10/10 08:01:53;;;;;;;17.53;11.83;;;11.60;99.90;;;;;;6188206;23;20168;-86
2021/10/10 08:04:19;;;;;;;16.63;11.90;;;11.70;99.90;;;;;;6187441;23;20657;-88
2021/10/10 08:06:47;;;;;;;20.53;11.93;;;11.80;99.90;;;;;;6211996;23;20282;-85
2021/10/10 08:09:14;;;;;;;15.20;11.10;;;11.90;99.90;;;;;;6211873;23;20224;-88
2021/10/10 08:11:41;;;;;;;15.87;12.23;;;12.00;99.90;;;;;;6212036;22;20531;-86
2021/10/10 08:14:06;;;;;;;15.97;11.20;;;12.20;99.90;;;;;;6238110;23;20202;-86
2021/10/10 08:16:32;;;;;;;15.63;10.40;;;12.30;99.90;;;;;;6211968;23;20204;-86
2021/10/10 08:18:58;;;;;;;13.43;8.97;;;12.30;99.90;;;;;;6236916;22;20201;-88
2021/10/10 08:21:24;;;;;;;15.47;10.23;;;12.20;99.90;;;;;;6211143;23;20227;-86
2021/10/10 08:23:49;;;;;;;17.53;11.87;;;12.20;99.90;;;;;;6211357;23;20205;-84
2021/10/10 08:26:15;;;;;;;17.60;10.03;;;12.10;99.90;;;;;;6187312;23;20223;-87
2021/10/10 08:28:41;;;;;;;17.03;10.27;;;11.80;99.90;;;;;;6236504;22;20258;-85
2021/10/10 08:31:07;;;;;;;13.70;10.60;;;11.70;99.90;;;;;;6236717;22;20220;-85
2021/10/10 08:33:32;;;;;;;19.27;10.07;;;11.50;99.90;;;;;;6187222;23;20220;-86
2021/10/10 08:35:58;;;;;;;16.73;10.30;;;11.30;99.90;;;;;;6211153;23;20221;-86
2021/10/10 08:38:24;;;;;;;20.50;12.67;;;11.30;99.90;;;;;;6186979;22;20158;-84
2021/10/10 08:40:53;;;;;;;21.77;13.67;;;11.40;99.90;;;;;;6187175;23;20153;-85
2021/10/10 08:43:21;;;;;;;16.60;10.77;;;11.70;99.90;;;;;;6212157;23;20677;-86
2021/10/10 08:45:48;;;;;;;19.00;10.70;;;12.10;99.90;;;;;;6238591;22;20852;-86
2021/10/10 08:48:17;;;;;;;16.30;12.37;;;12.40;99.90;;;;;;6187205;23;20193;-86
2021/10/10 08:50:43;;;;;;;19.13;11.80;;;12.50;99.90;;;;;;6237110;22;20824;-85
2021/10/10 08:53:11;;;;;;;20.57;12.67;;;12.60;99.90;;;;;;6237521;23;20259;-85
2021/10/10 08:55:37;;;;;;;19.27;12.50;;;12.90;99.90;;;;;;6237808;22;20201;-85
2021/10/10 08:58:07;;;;;;;17.43;10.53;;;13.10;99.90;;;;;;6236744;22;20331;-84
2021/10/10 09:00:35;;;;;;;22.17;13.47;;;13.20;99.90;;;;;;6235889;22;20205;-83
2021/10/10 09:03:08;;;;;;;22.17;13.87;;;13.60;99.90;;;;;;6187382;23;20192;-84
2021/10/10 09:05:34;;;;;;;25.77;12.93;;;14.00;99.90;;;;;;6212911;22;20149;-84
2021/10/10 09:08:00;;;;;;;27.33;13.53;;;14.30;99.90;;;;;;6236977;23;20841;-84
2021/10/10 09:10:27;;;;;;;20.30;11.50;;;14.30;99.90;;;;;;6210823;23;20193;-84
2021/10/10 09:13:09;;;;;;;25.13;14.83;;;14.60;99.90;;;;;;6211471;23;20742;-84
2021/10/10 09:15:41;;;;;;;16.73;10.33;;;14.90;99.90;;;;;;6236773;22;20197;-84
2021/10/10 09:18:08;;;;;;;24.53;12.17;;;14.80;99.90;;;;;;6236645;22;20276;-84
2021/10/10 09:20:38;;;;;;;18.17;12.23;;;14.80;99.90;;;;;;6236673;22;20497;-84
2021/10/10 09:23:07;;;;;;;20.80;12.63;;;14.90;99.90;;;;;;6238177;22;20211;-83
2021/10/10 09:25:33;;;;;;;19.30;11.53;;;15.10;99.90;;;;;;6236563;22;20268;-87
2021/10/10 09:28:04;;;;;;;19.57;12.47;;;15.30;99.90;;;;;;6211407;23;20204;-84
2021/10/10 09:30:57;;;;;;;21.20;11.67;;;15.20;99.90;;;;;;6212222;23;20188;-83
2021/10/10 09:33:46;;;;;;;25.03;13.63;;;15.20;99.90;;;;;;6234960;22;20201;-83
2021/10/10 09:36:20;;;;;;;25.27;13.87;;;15.60;99.90;;;;;;6230584;22;20200;-84
2021/10/10 09:41:25;;;;;;;24.60;12.43;;;15.40;99.90;;;;;;6234727;22;20145;-83
2021/10/10 09:44:02;;;;;;;24.40;13.47;;;15.40;99.90;;;;;;6186756;23;20187;-84
2021/10/10 09:46:29;;;;;;;20.13;12.37;;;15.70;99.90;;;;;;6234101;22;20300;-83
2021/10/10 09:48:56;;;;;;;26.97;15.27;;;15.60;99.90;;;;;;6219272;22;20200;-84
2021/10/10 09:51:35;;;;;;;25.17;15.10;;;15.70;99.90;;;;;;6179831;23;20205;-84
2021/10/10 09:54:06;;;;;;;26.50;15.77;;;15.90;99.90;;;;;;6234348;22;20197;-92
2021/10/10 09:56:33;;;;;;;26.07;13.73;;;16.00;99.90;;;;;;6208915;23;20205;-84
2021/10/10 09:58:59;;;;;;;29.57;15.87;;;16.30;99.90;;;;;;6233862;22;20205;-84
2021/10/10 10:01:29;;;;;;;27.60;14.07;;;16.40;99.90;;;;;;6209957;23;20276;-84
2021/10/10 10:04:08;;;;;;;28.53;13.83;;;16.30;99.90;;;;;;6210656;23;20157;-84
2021/10/10 10:06:38;;;;;;;25.40;14.07;;;16.10;99.90;;;;;;6233568;23;20242;-84
2021/10/10 10:09:08;;;;;;;26.90;13.73;;;16.40;99.90;;;;;;6207866;23;20204;-84
2021/10/10 10:11:36;;;;;;;24.43;14.43;;;17.10;99.90;;;;;;6233887;22;20212;-84
2021/10/10 10:14:04;;;;;;;24.57;13.73;;;17.50;99.90;;;;;;6184011;23;20732;-84
2021/10/10 10:16:32;;;;;;;27.73;16.17;;;18.00;99.90;;;;;;6233914;22;20319;-84
2021/10/10 10:18:59;;;;;;;26.57;15.33;;;19.00;99.90;;;;;;6210334;23;20603;-84
2021/10/10 10:21:30;;;;;;;30.07;15.17;;;19.60;99.90;;;;;;6209122;23;20193;-84
2021/10/10 10:24:00;;;;;;;22.47;13.00;;;19.90;99.90;;;;;;6234036;22;20658;-84
2021/10/10 10:26:31;;;;;;;26.53;15.07;;;20.70;99.90;;;;;;6236761;22;20193;-84
2021/10/10 10:28:58;;;;;;;35.77;15.53;;;20.70;99.90;;;;;;6187025;23;20205;-82
2021/10/10 10:31:25;;;;;;;24.37;15.60;;;21.50;99.90;;;;;;6238268;22;20201;-84
2021/10/10 10:33:54;;;;;;;30.33;14.23;;;21.80;99.90;;;;;;6239013;23;20220;-84
2021/10/10 10:36:50;;;;;;;31.70;15.63;;;22.40;99.90;;;;;;6189306;23;20208;-83
2021/10/10 10:39:43;;;;;;;30.90;16.10;;;23.20;99.90;;;;;;6228579;23;20200;-83
2021/10/10 10:42:11;;;;;;;30.43;16.47;;;23.50;99.90;;;;;;6238102;22;20244;-84
2021/10/10 10:44:41;;;;;;;24.30;14.30;;;22.80;99.90;;;;;;6238371;22;20197;-84
2021/10/10 10:47:16;;;;;;;29.10;14.67;;;23.00;99.90;;;;;;6238386;22;20201;-84
2021/10/10 10:49:51;;;;;;;27.03;14.93;;;22.30;99.90;;;;;;6238162;22;20196;-84
2021/10/10 10:52:35;;;;;;;24.17;12.70;;;22.80;99.90;;;;;;6237661;22;20230;-84
2021/10/10 10:55:00;;;;;;;27.33;14.27;;;22.20;99.90;;;;;;6238252;22;20200;-83
2021/10/10 10:57:28;;;;;;;19.07;12.33;;;21.50;99.90;;;;;;6239181;23;20162;-84
2021/10/10 11:00:03;;;;;;;18.53;12.20;;;20.90;99.90;;;;;;6213919;23;20267;-88
2021/10/10 11:02:47;;;;;;;21.50;12.37;;;20.30;99.90;;;;;;6238931;22;20816;-83
2021/10/10 11:05:28;;;;;;;25.57;12.73;;;20.20;99.90;;;;;;6238700;22;20200;-83
2021/10/10 11:07:54;;;;;;;19.17;11.40;;;20.40;99.90;;;;;;6238130;22;20201;-84
2021/10/10 11:10:20;;;;;;;18.17;9.87;;;19.30;99.90;;;;;;6188419;22;20276;-84
2021/10/10 11:12:54;;;;;;;22.53;10.33;;;17.90;99.90;;;;;;6188924;23;20259;-84
2021/10/10 11:15:20;;;;;;;20.27;10.87;;;17.70;99.90;;;;;;6238476;22;20189;-84
2021/10/10 11:17:55;;;;;;;21.50;11.07;;;17.50;99.90;;;;;;6238395;22;20221;-84
2021/10/10 11:20:21;;;;;;;21.10;11.87;;;18.20;99.90;;;;;;6238616;22;20219;-84
2021/10/10 11:22:47;;;;;;;21.10;10.07;;;19.10;99.90;;;;;;6238033;22;20816;-84
2021/10/10 11:25:13;;;;;;;19.33;11.53;;;20.00;99.90;;;;;;6187847;22;20193;-84
2021/10/10 11:27:40;;;;;;;18.67;10.47;;;20.80;99.90;;;;;;6238745;23;20208;-84
2021/10/10 11:30:07;;;;;;;17.43;10.60;;;21.60;99.90;;;;;;6213105;23;20648;-84
2021/10/10 11:32:49;;;;;;;23.30;11.53;;;21.70;99.90;;;;;;6212710;23;20244;-84
2021/10/10 11:35:25;;;;;;;18.73;11.53;;;21.30;99.90;;;;;;6213356;23;20209;-83
2021/10/10 11:38:02;;;;;;;19.10;11.30;;;20.90;99.90;;;;;;6212561;23;20201;-84
2021/10/10 11:40:28;;;;;;;16.33;9.63;;;20.40;99.90;;;;;;6213274;23;20197;-84
2021/10/10 11:42:55;;;;;;;17.63;10.20;;;20.30;99.90;;;;;;6238218;22;20271;-83
2021/10/10 11:45:22;;;;;;;17.63;9.73;;;19.50;99.90;;;;;;6188056;23;20208;-84
2021/10/10 11:47:52;;;;;;;14.40;8.73;;;18.90;99.90;;;;;;6212819;23;20983;-84
2021/10/10 11:50:18;;;;;;;21.87;10.97;;;18.00;99.90;;;;;;6213257;23;20672;-84
2021/10/10 11:52:59;;;;;;;20.97;10.87;;;18.40;99.90;;;;;;6237729;22;20209;-84
2021/10/10 11:55:43;;;;;;;17.27;10.20;;;19.00;99.90;;;;;;6238616;22;20528;-84
2021/10/10 11:58:09;;;;;;;19.30;10.10;;;19.50;99.90;;;;;;6238284;22;20154;-84
2021/10/10 12:00:36;;;;;;;17.37;10.53;;;19.60;99.90;;;;;;6213257;23;20215;-84
2021/10/10 12:03:10;;;;;;;20.97;11.17;;;19.40;99.90;;;;;;6187883;23;20723;-84
2021/10/10 12:05:45;;;;;;;16.97;9.57;;;19.50;99.90;;;;;;6237509;22;20699;-85
2021/10/10 12:08:22;;;;;;;17.30;10.13;;;19.20;99.90;;;;;;6237728;22;20193;-85
2021/10/10 12:10:48;;;;;;;20.47;10.00;;;19.30;99.90;;;;;;6212608;23;21221;-84
2021/10/10 12:13:18;;;;;;;19.27;10.90;;;19.50;99.90;;;;;;6239363;22;20181;-85
2021/10/10 12:15:56;;;;;;;18.07;9.93;;;19.10;99.90;;;;;;6238237;23;20478;-85
2021/10/10 12:18:27;;;;;;;18.30;10.20;;;19.00;99.90;;;;;;6238148;22;20635;-84
2021/10/10 12:21:18;;;;;;;18.70;9.10;;;19.30;99.90;;;;;;6238699;22;20658;-85
2021/10/10 12:23:44;;;;;;;17.07;9.83;;;19.50;99.90;;;;;;6237210;22;20216;-85
2021/10/10 12:26:10;;;;;;;18.20;10.03;;;19.70;99.90;;;;;;6237712;22;20263;-84
2021/10/10 12:28:35;;;;;;;18.97;9.43;;;19.10;99.90;;;;;;6186962;23;20528;-84
2021/10/10 12:31:02;;;;;;;17.40;9.77;;;19.10;99.90;;;;;;6187132;22;20245;-84
2021/10/10 12:33:40;;;;;;;16.53;10.17;;;18.60;99.90;;;;;;6212921;23;20172;-84
2021/10/10 12:36:06;;;;;;;19.97;10.13;;;18.60;99.90;;;;;;6237073;22;20243;-84
2021/10/10 12:38:38;;;;;;;19.63;10.03;;;18.40;99.90;;;;;;6236824;22;20197;-84
2021/10/10 12:41:20;;;;;;;16.10;9.27;;;17.90;99.90;;;;;;6238659;22;20655;-84
2021/10/10 12:43:48;;;;;;;18.97;10.57;;;17.40;99.90;;;;;;6236924;22;20207;-84
2021/10/10 12:46:14;;;;;;;18.47;9.77;;;17.20;99.90;;;;;;6238792;22;20150;-85